Time;durP1;ratioP1;P1;durP2;ratioP2;P2;SDS_P1;SDS_P2;PMS_P1;PMS_P2;Temp;Humidity;BMP_temperature;BMP_pressure;BME280_temperature;BME280_humidity;BME280_pressure;Samples;Min_cycle;Max_cycle;Signal;HPM_P1;HPM_P2
2022/06/10 00:00:09;;;;;;;7.13;0.82;;;;;;;;;;5056047;28;20120;-64
2022/06/10 00:02:35;;;;;;;8.02;0.90;;;;;;;;;;5056182;28;20060;-65
2022/06/10 00:05:01;;;;;;;3.80;0.60;;;;;;;;;;5055810;28;20086;-65
2022/06/10 00:07:33;;;;;;;5.10;0.70;;;;;;;;;;5055817;28;20374;-67
2022/06/10 00:10:00;;;;;;;3.08;0.60;;;;;;;;;;5055823;28;20040;-64
2022/06/10 00:12:26;;;;;;;6.38;0.80;;;;;;;;;;5055682;28;20504;-68
2022/06/10 00:14:52;;;;;;;9.95;0.82;;;;;;;;;;5055858;28;20033;-64
2022/06/10 00:17:18;;;;;;;2.05;0.60;;;;;;;;;;5055469;28;20094;-64
2022/06/10 00:19:44;;;;;;;6.20;0.60;;;;;;;;;;5055523;28;20052;-65
2022/06/10 00:22:11;;;;;;;10.93;0.73;;;;;;;;;;5055409;28;20037;-65
2022/06/10 00:24:37;;;;;;;10.27;0.93;;;;;;;;;;5055250;28;20457;-65
2022/06/10 00:27:03;;;;;;;15.07;0.90;;;;;;;;;;5055232;28;20397;-65
2022/06/10 00:29:29;;;;;;;5.40;0.52;;;;;;;;;;5055473;28;20381;-65
2022/06/10 00:31:55;;;;;;;3.30;0.65;;;;;;;;;;5055397;28;20033;-65
2022/06/10 00:34:21;;;;;;;5.28;0.80;;;;;;;;;;5055278;28;20108;-68
2022/06/10 00:36:47;;;;;;;10.60;1.10;;;;;;;;;;5055426;28;20029;-65
2022/06/10 00:39:13;;;;;;;2.35;0.60;;;;;;;;;;5054252;28;20110;-65
2022/06/10 00:41:43;;;;;;;1.92;0.52;;;;;;;;;;5055118;28;20040;-65
2022/06/10 00:44:28;;;;;;;5.70;0.60;;;;;;;;;;5055318;28;20063;-65
2022/06/10 00:46:54;;;;;;;8.68;0.80;;;;;;;;;;5054909;28;20041;-65
2022/06/10 00:49:20;;;;;;;5.25;0.80;;;;;;;;;;5054857;28;20037;-65
2022/06/10 00:51:52;;;;;;;6.75;0.50;;;;;;;;;;5055005;28;20047;-64
2022/06/10 00:54:27;;;;;;;7.05;0.75;;;;;;;;;;5055115;28;20511;-65
2022/06/10 00:56:55;;;;;;;9.70;0.98;;;;;;;;;;5054967;28;20035;-65
2022/06/10 00:59:23;;;;;;;4.28;0.70;;;;;;;;;;5052341;28;20053;-67
2022/06/10 01:01:54;;;;;;;1.77;0.60;;;;;;;;;;5052164;28;20113;-65
2022/06/10 01:04:20;;;;;;;10.07;0.75;;;;;;;;;;5052302;28;20624;-69
2022/06/10 01:06:46;;;;;;;3.67;0.60;;;;;;;;;;5054076;28;20033;-65
2022/06/10 01:09:12;;;;;;;10.60;0.88;;;;;;;;;;5054631;28;20170;-64
2022/06/10 01:11:46;;;;;;;3.35;0.70;;;;;;;;;;5054835;28;20029;-68
2022/06/10 01:14:15;;;;;;;4.22;0.77;;;;;;;;;;5054079;28;20041;-68
2022/06/10 01:16:54;;;;;;;6.75;0.70;;;;;;;;;;5054435;28;20064;-68
2022/06/10 01:19:47;;;;;;;12.23;0.90;;;;;;;;;;5054267;28;20039;-65
2022/06/10 01:22:13;;;;;;;5.75;0.70;;;;;;;;;;5023347;28;20036;-65
2022/06/10 01:24:39;;;;;;;8.60;1.65;;;;;;;;;;5054261;28;20040;-65
2022/06/10 01:30:08;;;;;;;5.47;0.70;;;;;;;;;;5054517;28;20091;-68
2022/06/10 01:32:40;;;;;;;8.20;0.73;;;;;;;;;;5054083;28;20072;-68
2022/06/10 01:35:20;;;;;;;7.75;0.70;;;;;;;;;;5053921;28;20033;-65
2022/06/10 01:38:01;;;;;;;11.70;0.73;;;;;;;;;;5054143;28;20099;-68
2022/06/10 01:40:36;;;;;;;4.43;0.63;;;;;;;;;;5054131;28;20466;-65
2022/06/10 01:43:10;;;;;;;7.57;0.90;;;;;;;;;;5053994;28;20037;-64
2022/06/10 01:45:43;;;;;;;7.47;1.33;;;;;;;;;;5053917;28;20037;-69
2022/06/10 01:48:16;;;;;;;3.17;1.20;;;;;;;;;;5053915;28;20045;-66
2022/06/10 01:50:42;;;;;;;6.53;0.90;;;;;;;;;;5053806;28;20036;-68
2022/06/10 01:53:12;;;;;;;9.00;0.73;;;;;;;;;;5054049;28;20033;-65
2022/06/10 01:55:47;;;;;;;2.70;0.63;;;;;;;;;;5053668;28;20033;-65
2022/06/10 01:58:16;;;;;;;8.10;0.60;;;;;;;;;;5053809;28;20493;-65
2022/06/10 02:00:45;;;;;;;6.85;0.90;;;;;;;;;;5053672;28;20040;-68
2022/06/10 02:03:26;;;;;;;6.68;0.70;;;;;;;;;;5053824;28;20029;-67
2022/06/10 02:06:03;;;;;;;6.43;0.63;;;;;;;;;;5053360;28;20040;-67
2022/06/10 02:08:31;;;;;;;2.00;0.57;;;;;;;;;;5053214;28;20493;-68
2022/06/10 02:11:05;;;;;;;4.07;0.45;;;;;;;;;;5053331;28;20060;-65
2022/06/10 02:13:33;;;;;;;8.43;1.08;;;;;;;;;;5053437;28;20083;-67
2022/06/10 02:16:01;;;;;;;9.63;0.70;;;;;;;;;;5053670;28;20432;-65
2022/06/10 02:18:49;;;;;;;5.28;0.55;;;;;;;;;;5053412;28;20037;-68
2022/06/10 02:21:26;;;;;;;12.45;0.70;;;;;;;;;;5053433;28;20440;-67
2022/06/10 02:23:57;;;;;;;6.93;1.25;;;;;;;;;;5053536;28;20074;-64
2022/06/10 02:26:24;;;;;;;3.63;0.60;;;;;;;;;;5053391;28;20037;-68
2022/06/10 02:28:52;;;;;;;7.57;0.60;;;;;;;;;;5053030;28;20171;-65
2022/06/10 02:31:22;;;;;;;5.55;0.65;;;;;;;;;;5053331;28;20040;-64
2022/06/10 02:33:48;;;;;;;9.85;0.70;;;;;;;;;;5053224;28;20033;-65
2022/06/10 02:36:24;;;;;;;5.47;0.60;;;;;;;;;;5052843;28;20160;-65
2022/06/10 02:38:50;;;;;;;2.13;0.35;;;;;;;;;;5053177;28;20515;-64
2022/06/10 02:41:39;;;;;;;5.13;0.63;;;;;;;;;;5053186;28;20033;-64
2022/06/10 02:44:08;;;;;;;3.40;0.90;;;;;;;;;;5042741;28;20067;-65
2022/06/10 02:46:45;;;;;;;2.70;0.63;;;;;;;;;;5052693;28;20033;-64
2022/06/10 02:49:15;;;;;;;2.13;0.50;;;;;;;;;;5053027;28;20120;-65
2022/06/10 02:51:41;;;;;;;7.88;0.40;;;;;;;;;;5053243;28;20033;-64
2022/06/10 02:54:11;;;;;;;7.55;0.80;;;;;;;;;;5052853;28;20489;-68
2022/06/10 02:56:37;;;;;;;5.68;0.50;;;;;;;;;;5052931;28;20029;-65
2022/06/10 03:02:07;;;;;;;5.30;0.55;;;;;;;;;;5053196;28;20044;-68
2022/06/10 03:04:39;;;;;;;4.53;0.57;;;;;;;;;;5052825;28;20500;-68
2022/06/10 03:07:05;;;;;;;5.05;0.60;;;;;;;;;;5052595;28;20037;-65
2022/06/10 03:09:31;;;;;;;10.32;0.70;;;;;;;;;;5052619;28;20033;-65
2022/06/10 03:11:57;;;;;;;5.28;0.47;;;;;;;;;;5052653;28;20685;-68
2022/06/10 03:14:26;;;;;;;14.63;1.88;;;;;;;;;;5052562;28;20036;-64
2022/06/10 03:17:07;;;;;;;5.38;0.40;;;;;;;;;;5052714;28;20033;-65
2022/06/10 03:19:42;;;;;;;6.00;0.73;;;;;;;;;;5052585;28;20036;-64
2022/06/10 03:22:11;;;;;;;7.07;0.60;;;;;;;;;;5052584;28;20417;-65
2022/06/10 03:24:46;;;;;;;4.95;0.40;;;;;;;;;;5052766;28;20503;-65
2022/06/10 03:27:23;;;;;;;8.63;0.55;;;;;;;;;;5052423;28;20067;-68
2022/06/10 03:29:56;;;;;;;4.78;0.47;;;;;;;;;;5056828;28;20025;-65
2022/06/10 03:32:22;;;;;;;10.10;0.50;;;;;;;;;;5056756;28;20039;-66
2022/06/10 03:34:51;;;;;;;8.88;0.55;;;;;;;;;;5056568;28;20037;-65
2022/06/10 03:37:18;;;;;;;2.78;0.50;;;;;;;;;;5056739;28;20033;-66
2022/06/10 03:39:49;;;;;;;3.75;0.30;;;;;;;;;;5056254;28;20025;-65
2022/06/10 03:42:17;;;;;;;7.72;0.65;;;;;;;;;;5056739;28;20041;-65
2022/06/10 03:44:43;;;;;;;5.68;0.60;;;;;;;;;;5056311;28;20033;-65
2022/06/10 03:47:13;;;;;;;4.78;0.52;;;;;;;;;;5055968;28;20068;-65
2022/06/10 03:49:43;;;;;;;5.63;1.40;;;;;;;;;;5056219;28;20055;-68
2022/06/10 03:52:12;;;;;;;5.07;0.50;;;;;;;;;;5056256;28;20128;-68
2022/06/10 03:54:39;;;;;;;3.83;0.47;;;;;;;;;;5056653;28;20501;-65
2022/06/10 03:57:05;;;;;;;4.55;0.70;;;;;;;;;;5056395;28;20033;-65
2022/06/10 03:59:31;;;;;;;7.78;0.45;;;;;;;;;;5055926;28;20044;-65
2022/06/10 04:01:57;;;;;;;5.18;0.50;;;;;;;;;;5056264;28;20044;-68
2022/06/10 04:04:23;;;;;;;8.85;1.13;;;;;;;;;;5056018;28;20108;-65
2022/06/10 04:06:49;;;;;;;8.43;1.02;;;;;;;;;;5055906;28;20044;-65
2022/06/10 04:09:15;;;;;;;4.13;0.50;;;;;;;;;;5055689;28;20036;-67
2022/06/10 04:11:41;;;;;;;10.00;0.70;;;;;;;;;;5055884;28;20028;-65
2022/06/10 04:14:07;;;;;;;3.13;0.50;;;;;;;;;;5055817;28;20473;-68
2022/06/10 04:16:33;;;;;;;3.67;0.68;;;;;;;;;;5055394;28;20103;-65
2022/06/10 04:19:00;;;;;;;7.38;0.70;;;;;;;;;;5055592;28;20031;-65
2022/06/10 04:21:26;;;;;;;6.25;0.80;;;;;;;;;;5055711;28;20457;-65
2022/06/10 04:23:52;;;;;;;8.73;0.80;;;;;;;;;;5055673;28;20484;-67
2022/06/10 04:26:18;;;;;;;3.38;0.55;;;;;;;;;;5055341;28;20473;-64
2022/06/10 04:28:44;;;;;;;1.70;0.55;;;;;;;;;;5055537;28;20049;-65
2022/06/10 04:31:10;;;;;;;6.43;0.80;;;;;;;;;;5055638;28;20112;-67
2022/06/10 04:33:37;;;;;;;4.55;0.68;;;;;;;;;;5055658;28;20063;-65
2022/06/10 04:36:03;;;;;;;0.95;0.50;;;;;;;;;;5055685;28;20029;-68
2022/06/10 04:38:29;;;;;;;2.13;0.85;;;;;;;;;;5055367;28;20064;-66
2022/06/10 04:40:55;;;;;;;2.85;0.95;;;;;;;;;;5054215;28;20025;-65
2022/06/10 04:43:22;;;;;;;2.30;0.80;;;;;;;;;;5055253;28;20044;-64
2022/06/10 04:45:50;;;;;;;2.28;0.50;;;;;;;;;;5055244;28;20114;-65
2022/06/10 04:48:16;;;;;;;2.63;0.70;;;;;;;;;;5055183;28;20049;-68
2022/06/10 04:50:43;;;;;;;6.22;0.90;;;;;;;;;;5054934;28;20029;-66
2022/06/10 04:53:09;;;;;;;2.03;0.90;;;;;;;;;;5055045;28;20048;-65
2022/06/10 04:55:35;;;;;;;2.28;0.47;;;;;;;;;;5055190;28;20036;-67
2022/06/10 04:58:01;;;;;;;3.40;0.80;;;;;;;;;;5054840;28;20041;-65
2022/06/10 05:00:32;;;;;;;8.10;0.80;;;;;;;;;;5054526;28;20021;-65
2022/06/10 05:02:58;;;;;;;8.85;0.90;;;;;;;;;;5054961;28;20040;-68
2022/06/10 05:05:24;;;;;;;6.95;0.70;;;;;;;;;;5054911;28;20036;-65
2022/06/10 05:07:51;;;;;;;6.68;0.68;;;;;;;;;;5054458;28;20045;-65
2022/06/10 05:10:17;;;;;;;1.75;0.70;;;;;;;;;;5054721;28;20029;-65
2022/06/10 05:12:46;;;;;;;7.25;0.75;;;;;;;;;;5054748;28;20037;-65
2022/06/10 05:15:16;;;;;;;6.32;0.60;;;;;;;;;;5054397;28;20457;-65
2022/06/10 05:17:42;;;;;;;6.82;0.77;;;;;;;;;;5054500;28;20029;-69
2022/06/10 05:20:10;;;;;;;5.97;1.08;;;;;;;;;;5054475;28;20124;-65
2022/06/10 05:22:36;;;;;;;4.82;0.75;;;;;;;;;;5054423;28;20037;-64
2022/06/10 05:25:03;;;;;;;4.00;0.70;;;;;;;;;;5054270;28;20489;-64
2022/06/10 05:27:29;;;;;;;4.15;0.82;;;;;;;;;;5054424;28;20040;-65
2022/06/10 05:29:55;;;;;;;6.53;0.80;;;;;;;;;;5054183;28;20083;-64
2022/06/10 05:32:21;;;;;;;8.40;0.90;;;;;;;;;;5054087;28;20102;-65
2022/06/10 05:34:47;;;;;;;3.10;0.70;;;;;;;;;;5053899;28;20124;-65
2022/06/10 05:37:14;;;;;;;5.75;0.90;;;;;;;;;;5053533;28;20045;-65
2022/06/10 05:39:40;;;;;;;7.78;0.90;;;;;;;;;;5053148;28;20033;-65
2022/06/10 05:42:06;;;;;;;6.93;0.75;;;;;;;;;;5053936;28;20603;-64
2022/06/10 05:44:37;;;;;;;8.88;1.10;;;;;;;;;;5054304;28;20100;-64
2022/06/10 05:47:05;;;;;;;5.43;1.00;;;;;;;;;;5053486;28;20045;-65
2022/06/10 05:49:32;;;;;;;6.95;1.00;;;;;;;;;;5054038;28;20033;-65
2022/06/10 05:51:58;;;;;;;3.83;0.77;;;;;;;;;;5053632;28;20033;-66
2022/06/10 05:54:25;;;;;;;2.97;0.75;;;;;;;;;;5054082;28;20057;-64
2022/06/10 05:56:51;;;;;;;2.20;0.82;;;;;;;;;;5054011;28;20036;-65
2022/06/10 05:59:18;;;;;;;5.40;0.80;;;;;;;;;;5054243;28;20033;-67
2022/06/10 06:01:45;;;;;;;3.85;0.95;;;;;;;;;;5053780;28;20060;-64
2022/06/10 06:04:11;;;;;;;3.63;0.98;;;;;;;;;;5053761;28;20087;-64
2022/06/10 06:06:38;;;;;;;3.42;0.90;;;;;;;;;;5053042;28;20061;-65
2022/06/10 06:09:04;;;;;;;5.43;0.95;;;;;;;;;;5052413;28;20393;-64
2022/06/10 06:11:30;;;;;;;5.70;1.10;;;;;;;;;;5053374;28;20409;-65
2022/06/10 06:13:58;;;;;;;10.15;1.35;;;;;;;;;;5053593;28;20037;-66
2022/06/10 06:16:24;;;;;;;9.75;0.90;;;;;;;;;;5052737;28;20029;-65
2022/06/10 06:18:51;;;;;;;2.65;0.80;;;;;;;;;;5053270;28;20048;-64
2022/06/10 06:21:17;;;;;;;5.47;1.05;;;;;;;;;;5053258;28;20064;-64
2022/06/10 06:23:43;;;;;;;7.18;1.20;;;;;;;;;;5052673;28;20112;-63
2022/06/10 06:26:15;;;;;;;5.40;0.93;;;;;;;;;;5052075;28;20139;-63
2022/06/10 06:28:41;;;;;;;8.83;0.90;;;;;;;;;;5051153;28;20094;-65
2022/06/10 06:31:07;;;;;;;5.43;0.88;;;;;;;;;;5053171;28;20263;-65
2022/06/10 06:33:33;;;;;;;10.07;1.40;;;;;;;;;;5053427;28;20040;-65
2022/06/10 06:35:59;;;;;;;22.15;1.85;;;;;;;;;;5053369;28;20091;-64
2022/06/10 06:38:26;;;;;;;13.23;1.65;;;;;;;;;;5053247;28;20029;-65
2022/06/10 06:40:53;;;;;;;3.55;1.10;;;;;;;;;;5053281;28;20068;-65
2022/06/10 06:43:19;;;;;;;9.02;2.20;;;;;;;;;;5053155;28;20108;-64
2022/06/10 06:45:45;;;;;;;6.35;1.02;;;;;;;;;;5052889;28;20048;-65
2022/06/10 06:48:11;;;;;;;4.28;1.38;;;;;;;;;;5052678;28;20045;-65
2022/06/10 06:50:40;;;;;;;11.60;1.33;;;;;;;;;;5052779;28;20435;-65
2022/06/10 06:53:06;;;;;;;6.97;1.20;;;;;;;;;;5053155;28;20438;-65
2022/06/10 06:55:33;;;;;;;10.35;1.30;;;;;;;;;;5052763;28;20029;-65
2022/06/10 06:57:59;;;;;;;12.68;1.65;;;;;;;;;;5052729;28;20048;-65
2022/06/10 07:00:28;;;;;;;10.68;1.20;;;;;;;;;;5052022;28;20025;-67
2022/06/10 07:02:54;;;;;;;8.80;1.33;;;;;;;;;;5051299;28;20505;-67
2022/06/10 07:05:20;;;;;;;7.07;1.00;;;;;;;;;;5052466;28;20029;-65
2022/06/10 07:07:46;;;;;;;11.70;1.15;;;;;;;;;;5034526;28;20087;-68
2022/06/10 07:10:14;;;;;;;7.03;1.15;;;;;;;;;;5052645;28;20496;-65
2022/06/10 07:12:40;;;;;;;2.58;1.05;;;;;;;;;;5052280;28;20112;-65
2022/06/10 07:15:06;;;;;;;3.95;1.20;;;;;;;;;;5052080;28;20029;-65
2022/06/10 07:17:32;;;;;;;6.55;1.00;;;;;;;;;;5051495;28;20033;-65
2022/06/10 07:19:59;;;;;;;4.55;1.20;;;;;;;;;;5050400;28;20036;-65
2022/06/10 07:22:26;;;;;;;6.60;1.67;;;;;;;;;;5050127;28;20037;-65
2022/06/10 07:24:53;;;;;;;7.82;1.65;;;;;;;;;;5051520;28;20029;-65
2022/06/10 07:27:19;;;;;;;11.55;1.60;;;;;;;;;;5052639;28;20025;-64
2022/06/10 07:29:45;;;;;;;7.30;1.50;;;;;;;;;;5052859;28;20033;-64
2022/06/10 07:32:11;;;;;;;4.43;2.13;;;;;;;;;;5052292;28;20437;-65
2022/06/10 07:34:37;;;;;;;10.75;1.30;;;;;;;;;;5052676;28;20041;-65
2022/06/10 07:37:04;;;;;;;6.07;1.55;;;;;;;;;;5052238;28;20033;-67
2022/06/10 07:39:32;;;;;;;2.25;1.23;;;;;;;;;;5052542;28;20501;-65
2022/06/10 07:42:00;;;;;;;2.65;0.90;;;;;;;;;;5051374;28;20032;-64
2022/06/10 07:44:26;;;;;;;6.68;1.33;;;;;;;;;;5051912;28;20397;-65
2022/06/10 07:46:54;;;;;;;6.35;1.20;;;;;;;;;;5052226;28;20032;-64
2022/06/10 07:49:20;;;;;;;11.18;1.70;;;;;;;;;;5052287;28;20049;-65
2022/06/10 07:51:46;;;;;;;5.47;1.77;;;;;;;;;;5052320;28;20040;-65
2022/06/10 07:54:13;;;;;;;10.60;1.63;;;;;;;;;;5052568;28;20037;-66
2022/06/10 07:56:39;;;;;;;7.00;1.38;;;;;;;;;;5052192;28;20127;-64
2022/06/10 07:59:06;;;;;;;5.90;1.25;;;;;;;;;;5052281;28;20037;-64
2022/06/10 08:01:33;;;;;;;3.65;1.33;;;;;;;;;;5052365;28;20111;-65
2022/06/10 08:03:59;;;;;;;10.48;1.77;;;;;;;;;;5052498;28;20432;-64
2022/06/10 08:06:26;;;;;;;8.13;1.52;;;;;;;;;;5052351;28;20037;-65
2022/06/10 08:08:52;;;;;;;7.15;1.30;;;;;;;;;;5052069;28;20136;-65
2022/06/10 08:11:19;;;;;;;6.82;1.58;;;;;;;;;;5052185;28;20037;-64
2022/06/10 08:13:45;;;;;;;7.00;1.80;;;;;;;;;;5052668;28;20044;-65
2022/06/10 08:16:11;;;;;;;4.25;1.25;;;;;;;;;;5055866;28;20041;-65
2022/06/10 08:18:38;;;;;;;5.63;1.30;;;;;;;;;;5055599;28;20071;-65
2022/06/10 08:23:49;;;;;;;10.30;1.25;;;;;;;;;;5055488;28;20117;-65
2022/06/10 08:26:15;;;;;;;10.27;1.60;;;;;;;;;;5055441;28;20040;-65
2022/06/10 08:28:42;;;;;;;16.35;1.60;;;;;;;;;;5055424;28;20504;-65
2022/06/10 08:31:08;;;;;;;8.60;1.63;;;;;;;;;;5055542;28;20044;-65
2022/06/10 08:33:35;;;;;;;7.25;1.75;;;;;;;;;;5055626;28;20052;-64
2022/06/10 08:36:01;;;;;;;7.50;1.25;;;;;;;;;;5055618;28;20120;-64
2022/06/10 08:38:27;;;;;;;8.93;1.15;;;;;;;;;;5055339;28;20044;-65
2022/06/10 08:40:53;;;;;;;17.08;1.30;;;;;;;;;;5055342;28;20079;-65
2022/06/10 08:43:38;;;;;;;3.08;0.90;;;;;;;;;;5055301;28;20044;-65
2022/06/10 08:46:13;;;;;;;10.40;1.17;;;;;;;;;;5055241;28;20055;-65
2022/06/10 08:48:57;;;;;;;14.45;2.40;;;;;;;;;;5054978;28;20055;-65
2022/06/10 08:51:33;;;;;;;6.97;1.38;;;;;;;;;;5055024;28;20025;-65
2022/06/10 08:54:08;;;;;;;3.25;0.90;;;;;;;;;;5055263;28;20043;-65
2022/06/10 08:56:35;;;;;;;16.00;1.13;;;;;;;;;;5055131;28;20033;-65
2022/06/10 08:59:01;;;;;;;10.85;1.08;;;;;;;;;;5055317;28;20116;-65
2022/06/10 09:01:28;;;;;;;4.03;0.90;;;;;;;;;;5055525;28;20030;-65
2022/06/10 09:04:04;;;;;;;4.63;1.33;;;;;;;;;;5055351;28;20040;-65
2022/06/10 09:06:36;;;;;;;4.65;1.00;;;;;;;;;;5055227;28;20033;-64
2022/06/10 09:09:05;;;;;;;10.85;1.20;;;;;;;;;;5055130;28;20052;-65
2022/06/10 09:11:39;;;;;;;2.50;0.70;;;;;;;;;;5055213;28;20056;-65
2022/06/10 09:14:05;;;;;;;2.85;0.70;;;;;;;;;;5055094;28;20111;-65
2022/06/10 09:16:37;;;;;;;1.48;0.57;;;;;;;;;;5054922;28;20113;-65
2022/06/10 09:19:06;;;;;;;4.60;0.73;;;;;;;;;;5055134;28;20060;-65
2022/06/10 09:21:50;;;;;;;6.40;1.30;;;;;;;;;;5054763;28;20389;-65
2022/06/10 09:24:35;;;;;;;5.32;0.88;;;;;;;;;;5054839;28;20059;-65
2022/06/10 09:27:13;;;;;;;4.70;1.08;;;;;;;;;;5054045;28;20033;-65
2022/06/10 09:29:40;;;;;;;1.95;0.65;;;;;;;;;;5054837;28;20500;-65
2022/06/10 09:32:11;;;;;;;1.52;0.50;;;;;;;;;;5054160;28;20029;-64
2022/06/10 09:34:55;;;;;;;1.52;0.30;;;;;;;;;;5054490;28;20033;-65
2022/06/10 09:37:34;;;;;;;4.60;0.52;;;;;;;;;;5054452;28;20036;-65
2022/06/10 09:43:10;;;;;;;0.80;0.43;;;;;;;;;;5054251;28;20053;-65
2022/06/10 09:45:40;;;;;;;3.20;0.47;;;;;;;;;;5054198;28;20043;-65
2022/06/10 09:48:16;;;;;;;4.10;0.60;;;;;;;;;;5054040;28;20053;-65
2022/06/10 09:51:01;;;;;;;1.50;0.50;;;;;;;;;;5054449;28;20040;-65
2022/06/10 09:53:45;;;;;;;2.85;0.50;;;;;;;;;;5053988;28;20033;-65
2022/06/10 09:56:37;;;;;;;1.30;0.40;;;;;;;;;;5054066;28;20048;-65
2022/06/10 09:59:07;;;;;;;0.98;0.40;;;;;;;;;;5054208;28;20033;-65
2022/06/10 10:01:42;;;;;;;1.85;0.38;;;;;;;;;;5054036;28;20033;-65
2022/06/10 10:04:26;;;;;;;0.75;0.40;;;;;;;;;;5053818;28;20040;-65
2022/06/10 10:07:14;;;;;;;5.50;0.60;;;;;;;;;;5054057;28;20370;-65
2022/06/10 10:09:44;;;;;;;3.80;0.65;;;;;;;;;;5054147;28;20052;-65
2022/06/10 10:12:20;;;;;;;4.82;0.98;;;;;;;;;;5053655;28;20512;-65
2022/06/10 10:14:46;;;;;;;3.72;0.57;;;;;;;;;;5053670;28;20037;-65
2022/06/10 10:17:30;;;;;;;1.48;0.40;;;;;;;;;;5053727;28;20097;-65
2022/06/10 10:19:56;;;;;;;3.28;0.63;;;;;;;;;;5053642;28;20037;-65
2022/06/10 10:22:22;;;;;;;1.92;0.40;;;;;;;;;;5053460;28;20045;-66
2022/06/10 10:24:49;;;;;;;1.63;0.60;;;;;;;;;;5053455;28;20029;-65
2022/06/10 10:27:23;;;;;;;1.30;0.50;;;;;;;;;;5053437;28;20087;-65
2022/06/10 10:29:53;;;;;;;4.57;0.55;;;;;;;;;;5053516;28;20517;-65
2022/06/10 10:32:25;;;;;;;2.70;0.57;;;;;;;;;;5053090;28;20112;-65
2022/06/10 10:34:55;;;;;;;0.52;0.30;;;;;;;;;;5053481;28;20037;-64
2022/06/10 10:37:27;;;;;;;3.35;0.47;;;;;;;;;;5052408;28;20037;-64
2022/06/10 10:39:53;;;;;;;;;;;;;;;;;;5054053;28;20033;-64
2022/06/10 10:42:21;;;;;;;5.68;0.43;;;;;;;;;;5053545;28;20269;-65
2022/06/10 10:44:51;;;;;;;1.55;0.40;;;;;;;;;;5053252;28;20110;-64
2022/06/10 10:47:20;;;;;;;1.55;0.50;;;;;;;;;;5053119;28;20053;-64
2022/06/10 10:49:55;;;;;;;3.72;0.60;;;;;;;;;;5053120;28;20033;-65
2022/06/10 10:52:39;;;;;;;4.68;0.60;;;;;;;;;;5052885;28;20079;-65
2022/06/10 10:55:14;;;;;;;3.60;0.60;;;;;;;;;;5052156;28;20052;-64
2022/06/10 10:57:42;;;;;;;3.92;0.43;;;;;;;;;;5052819;28;20028;-64
2022/06/10 11:00:15;;;;;;;2.72;0.80;;;;;;;;;;5053819;28;20094;-64
2022/06/10 11:02:41;;;;;;;;;;;;;;;;;;5053238;28;20436;-64
2022/06/10 11:05:15;;;;;;;2.83;0.40;;;;;;;;;;5053311;28;19905;-64
2022/06/10 11:07:43;;;;;;;3.03;0.45;;;;;;;;;;5052371;28;20404;-64
2022/06/10 11:10:09;;;;;;;6.03;0.57;;;;;;;;;;5052496;28;20384;-64
2022/06/10 11:12:35;;;;;;;1.42;0.38;;;;;;;;;;5051484;28;20037;-64
2022/06/10 11:15:03;;;;;;;6.63;0.60;;;;;;;;;;5049859;28;20037;-64
2022/06/10 11:17:30;;;;;;;5.35;0.65;;;;;;;;;;5050184;28;20034;-64
2022/06/10 11:20:01;;;;;;;4.32;0.60;;;;;;;;;;5052716;28;20033;-64
2022/06/10 11:22:33;;;;;;;2.13;0.50;;;;;;;;;;5053039;28;20503;-65
2022/06/10 11:25:14;;;;;;;6.50;0.60;;;;;;;;;;5053011;28;20037;-64
2022/06/10 11:27:42;;;;;;;1.77;0.57;;;;;;;;;;5052638;28;20041;-64
2022/06/10 11:30:08;;;;;;;2.13;0.60;;;;;;;;;;5052943;28;20029;-64
2022/06/10 11:32:37;;;;;;;3.15;0.52;;;;;;;;;;5052665;28;20128;-64
2022/06/10 11:35:14;;;;;;;7.40;0.80;;;;;;;;;;5052539;28;20082;-64
2022/06/10 11:37:41;;;;;;;2.17;0.50;;;;;;;;;;5051689;28;20102;-64
2022/06/10 11:40:28;;;;;;;4.43;0.50;;;;;;;;;;5049668;28;20044;-65
2022/06/10 11:43:00;;;;;;;4.13;0.35;;;;;;;;;;5049803;28;20489;-65
2022/06/10 11:45:29;;;;;;;6.72;0.40;;;;;;;;;;5051606;28;20037;-64
2022/06/10 11:48:07;;;;;;;0.93;0.40;;;;;;;;;;5052045;28;20049;-64
2022/06/10 11:50:36;;;;;;;3.08;0.65;;;;;;;;;;5055803;28;20040;-64
2022/06/10 11:53:09;;;;;;;4.10;0.60;;;;;;;;;;5056005;28;20041;-64
2022/06/10 11:55:38;;;;;;;9.45;1.35;;;;;;;;;;5056380;28;20036;-65
2022/06/10 12:00:57;;;;;;;1.25;0.32;;;;;;;;;;5056161;28;20106;-65
2022/06/10 12:03:29;;;;;;;2.47;0.35;;;;;;;;;;5056075;28;20404;-65
2022/06/10 12:05:55;;;;;;;;;;;;;;;;;;5056566;28;20025;-65
2022/06/10 12:08:27;;;;;;;3.20;0.40;;;;;;;;;;5056146;28;19913;-65
2022/06/10 12:11:14;;;;;;;3.63;0.47;;;;;;;;;;5055981;28;20029;-65
2022/06/10 12:13:45;;;;;;;2.78;0.38;;;;;;;;;;5042364;28;20135;-68
2022/06/10 12:16:11;;;;;;;5.10;0.57;;;;;;;;;;5055920;28;20061;-68
2022/06/10 12:18:45;;;;;;;1.80;0.60;;;;;;;;;;5056016;28;20033;-67
2022/06/10 12:21:16;;;;;;;0.52;0.40;;;;;;;;;;5056142;28;20509;-67
2022/06/10 12:23:44;;;;;;;1.20;0.40;;;;;;;;;;5055213;28;20083;-66
2022/06/10 12:26:10;;;;;;;0.47;0.28;;;;;;;;;;5054208;28;20115;-69
2022/06/10 12:28:38;;;;;;;1.02;0.43;;;;;;;;;;5054440;28;20048;-67
2022/06/10 12:31:24;;;;;;;6.03;0.50;;;;;;;;;;5053596;28;20025;-68
2022/06/10 12:33:50;;;;;;;1.77;0.25;;;;;;;;;;5051200;28;20488;-69
2022/06/10 12:36:19;;;;;;;2.05;0.40;;;;;;;;;;5053255;28;20366;-67
2022/06/10 12:38:46;;;;;;;1.27;0.40;;;;;;;;;;5053770;28;20041;-68
2022/06/10 12:41:21;;;;;;;5.22;0.47;;;;;;;;;;5051066;28;20025;-67
2022/06/10 12:43:51;;;;;;;0.32;0.30;;;;;;;;;;5053533;28;20527;-68
2022/06/10 12:46:36;;;;;;;1.25;0.50;;;;;;;;;;5053521;28;20029;-67
2022/06/10 12:49:21;;;;;;;3.40;0.50;;;;;;;;;;5052766;28;20056;-67
2022/06/10 12:52:01;;;;;;;5.72;0.40;;;;;;;;;;5054713;28;20051;-70
2022/06/10 12:54:33;;;;;;;2.55;0.60;;;;;;;;;;5054554;28;20119;-68
2022/06/10 12:56:59;;;;;;;;;;;;;;;;;;5055347;28;20175;-67
2022/06/10 12:59:28;;;;;;;4.13;0.50;;;;;;;;;;5054811;28;20424;-68
2022/06/10 13:01:54;;;;;;;4.22;0.77;;;;;;;;;;5053605;28;20025;-67
2022/06/10 13:04:20;;;;;;;1.95;0.40;;;;;;;;;;5054106;28;20115;-68
2022/06/10 13:06:56;;;;;;;3.00;0.50;;;25.30;53.10;;;;;;5054916;28;20260;-70
2022/06/10 13:09:24;;;;;;;2.33;0.50;;;25.10;54.90;;;;;;5054827;28;20045;-69
2022/06/10 13:11:52;;;;;;;2.60;0.40;;;25.20;54.10;;;;;;5054829;28;20032;-70
2022/06/10 13:14:25;;;;;;;1.25;0.40;;;25.20;52.00;;;;;;5054786;28;20033;-70
2022/06/10 13:17:14;;;;;;;1.30;0.52;;;25.30;52.00;;;;;;5054732;28;20043;-70
2022/06/10 13:20:08;;;;;;;0.68;0.40;;;25.40;51.40;;;;;;5054729;28;20055;-69
2022/06/10 13:22:38;;;;;;;2.47;0.50;;;25.40;52.20;;;;;;5054706;28;20439;-69
2022/06/10 13:25:04;;;;;;;2.83;0.50;;;25.50;52.50;;;;;;5054837;28;20051;-70
2022/06/10 13:27:42;;;;;;;2.45;0.40;;;25.50;52.20;;;;;;5054533;28;20504;-70
2022/06/10 13:30:14;;;;;;;3.95;0.40;;;25.60;51.90;;;;;;5054368;28;20037;-70
2022/06/10 13:32:42;;;;;;;3.40;0.30;;;25.60;53.10;;;;;;5054567;28;20193;-70
2022/06/10 13:35:16;;;;;;;4.03;0.60;;;25.70;52.70;;;;;;5054552;28;20033;-70
2022/06/10 13:37:42;;;;;;;0.65;0.30;;;25.70;53.00;;;;;;5054375;28;20537;-70
2022/06/10 13:40:18;;;;;;;0.82;0.40;;;25.80;50.70;;;;;;5054107;28;20021;-70
2022/06/10 13:42:44;;;;;;;1.80;0.35;;;25.70;51.40;;;;;;5036629;28;20468;-70
2022/06/10 13:45:28;;;;;;;3.05;0.30;;;25.80;50.00;;;;;;5054263;28;20124;-70
2022/06/10 13:47:57;;;;;;;1.00;0.40;;;25.80;49.20;;;;;;5054183;28;20041;-70
2022/06/10 13:53:07;;;;;;;2.00;0.85;;;25.90;48.00;;;;;;5053832;28;20446;-70
2022/06/10 13:55:37;;;;;;;2.65;0.50;;;26.00;48.10;;;;;;5053858;28;20033;-70
2022/06/10 13:58:08;;;;;;;1.00;0.40;;;26.00;48.10;;;;;;5053919;28;20474;-68
2022/06/10 14:00:47;;;;;;;5.93;1.38;;;26.10;47.70;;;;;;5054004;28;20393;-68
2022/06/10 14:03:28;;;;;;;1.08;0.30;;;26.20;47.20;;;;;;5053689;28;20034;-68
2022/06/10 14:06:02;;;;;;;4.20;0.57;;;26.40;46.70;;;;;;5053688;28;20021;-69
2022/06/10 14:08:32;;;;;;;2.50;0.40;;;26.40;47.50;;;;;;5053431;28;20313;-68
2022/06/10 14:10:58;;;;;;;0.60;0.40;;;26.50;44.90;;;;;;5052815;28;20033;-69
2022/06/10 14:13:24;;;;;;;2.13;0.47;;;26.60;43.70;;;;;;5052149;28;20390;-68
2022/06/10 14:15:54;;;;;;;0.90;0.45;;;26.70;45.00;;;;;;5053040;28;20048;-68
2022/06/10 14:18:23;;;;;;;1.15;0.50;;;26.70;44.80;;;;;;5046889;28;20049;-70
2022/06/10 14:20:53;;;;;;;1.60;0.40;;;26.80;43.70;;;;;;5049504;28;20025;-68
2022/06/10 14:23:29;;;;;;;2.67;0.85;;;26.80;43.00;;;;;;5051981;28;20037;-69
2022/06/10 14:26:09;;;;;;;0.90;0.32;;;26.90;43.70;;;;;;5044983;28;20036;-70
2022/06/10 14:28:35;;;;;;;0.30;0.30;;;26.90;42.70;;;;;;5051479;28;20068;-69
2022/06/10 14:31:03;;;;;;;1.08;0.50;;;26.90;43.70;;;;;;5051469;28;20497;-68
2022/06/10 14:33:36;;;;;;;3.38;0.60;;;27.00;44.30;;;;;;5049927;28;20493;-69
2022/06/10 14:36:12;;;;;;;2.42;0.60;;;26.90;42.80;;;;;;5051369;28;20025;-69
2022/06/10 14:38:39;;;;;;;1.10;0.30;;;26.90;42.40;;;;;;5052767;28;20040;-68
2022/06/10 14:41:07;;;;;;;1.23;0.40;;;26.90;42.40;;;;;;5052739;28;20033;-68
2022/06/10 14:43:38;;;;;;;1.15;0.60;;;26.90;42.30;;;;;;5052699;28;20528;-68
2022/06/10 14:46:13;;;;;;;1.23;0.57;;;26.90;43.00;;;;;;5052766;28;20037;-69
2022/06/10 14:48:41;;;;;;;0.80;0.50;;;26.80;43.30;;;;;;5046418;28;20056;-68
2022/06/10 14:51:28;;;;;;;5.47;0.45;;;26.80;44.10;;;;;;5052740;28;20028;-70
2022/06/10 14:53:57;;;;;;;2.80;0.50;;;26.90;44.30;;;;;;5052461;28;20043;-69
2022/06/10 14:56:26;;;;;;;1.30;0.45;;;26.80;43.70;;;;;;5052267;28;20098;-70
2022/06/10 14:58:52;;;;;;;3.60;0.50;;;26.90;43.50;;;;;;5051030;28;20033;-71